sensor_id;sensor_type;location;lat;lon;timestamp;P1;durP1;ratioP1;P2;durP2;ratioP2
76552;SDS011;65395;53.168;18.156;2024-02-28T00:00:28;46.00;;;16.00;;
76552;SDS011;65395;53.168;18.156;2024-02-28T00:03:15;45.00;;;16.60;;
76552;SDS011;65395;53.168;18.156;2024-02-28T00:05:42;41.20;;;15.40;;
76552;SDS011;65395;53.168;18.156;2024-02-28T00:08:11;38.10;;;15.00;;
76552;SDS011;65395;53.168;18.156;2024-02-28T00:10:38;35.90;;;14.30;;
76552;SDS011;65395;53.168;18.156;2024-02-28T00:13:05;38.70;;;15.70;;
76552;SDS011;65395;53.168;18.156;2024-02-28T00:15:31;35.70;;;14.30;;
76552;SDS011;65395;53.168;18.156;2024-02-28T00:17:58;43.00;;;16.00;;
76552;SDS011;65395;53.168;18.156;2024-02-28T00:20:25;41.80;;;14.90;;
76552;SDS011;65395;53.168;18.156;2024-02-28T00:22:53;41.50;;;15.20;;
76552;SDS011;65395;53.168;18.156;2024-02-28T00:25:20;43.70;;;15.50;;
76552;SDS011;65395;53.168;18.156;2024-02-28T00:27:47;39.30;;;15.20;;
76552;SDS011;65395;53.168;18.156;2024-02-28T00:30:14;39.30;;;14.40;;
76552;SDS011;65395;53.168;18.156;2024-02-28T00:32:41;35.10;;;13.80;;
76552;SDS011;65395;53.168;18.156;2024-02-28T00:35:08;38.30;;;13.40;;
76552;SDS011;65395;53.168;18.156;2024-02-28T00:37:35;38.90;;;13.70;;
76552;SDS011;65395;53.168;18.156;2024-02-28T00:40:01;35.10;;;14.30;;
76552;SDS011;65395;53.168;18.156;2024-02-28T00:42:29;38.90;;;14.70;;
76552;SDS011;65395;53.168;18.156;2024-02-28T00:44:55;37.00;;;14.90;;
76552;SDS011;65395;53.168;18.156;2024-02-28T00:47:22;35.30;;;14.30;;
76552;SDS011;65395;53.168;18.156;2024-02-28T00:49:49;36.10;;;13.50;;
76552;SDS011;65395;53.168;18.156;2024-02-28T00:52:16;41.40;;;15.20;;
76552;SDS011;65395;53.168;18.156;2024-02-28T00:54:43;42.20;;;14.60;;
76552;SDS011;65395;53.168;18.156;2024-02-28T00:57:10;39.30;;;14.40;;
76552;SDS011;65395;53.168;18.156;2024-02-28T00:59:37;39.10;;;15.30;;
76552;SDS011;65395;53.168;18.156;2024-02-28T01:02:04;38.70;;;14.30;;
76552;SDS011;65395;53.168;18.156;2024-02-28T01:04:31;37.70;;;14.30;;
76552;SDS011;65395;53.168;18.156;2024-02-28T01:06:58;44.20;;;16.60;;
76552;SDS011;65395;53.168;18.156;2024-02-28T01:09:25;47.50;;;15.70;;
76552;SDS011;65395;53.168;18.156;2024-02-28T01:11:51;44.50;;;15.80;;
76552;SDS011;65395;53.168;18.156;2024-02-28T01:14:18;42.30;;;14.60;;
76552;SDS011;65395;53.168;18.156;2024-02-28T01:16:45;48.90;;;14.20;;
76552;SDS011;65395;53.168;18.156;2024-02-28T01:19:12;44.70;;;15.10;;
76552;SDS011;65395;53.168;18.156;2024-02-28T01:21:39;39.80;;;14.20;;
76552;SDS011;65395;53.168;18.156;2024-02-28T01:24:06;48.80;;;14.20;;
76552;SDS011;65395;53.168;18.156;2024-02-28T01:26:33;43.20;;;13.80;;
76552;SDS011;65395;53.168;18.156;2024-02-28T01:29:00;42.40;;;13.50;;
76552;SDS011;65395;53.168;18.156;2024-02-28T01:31:27;48.80;;;14.80;;
76552;SDS011;65395;53.168;18.156;2024-02-28T01:33:53;42.40;;;13.20;;
76552;SDS011;65395;53.168;18.156;2024-02-28T01:36:22;41.40;;;14.10;;
76552;SDS011;65395;53.168;18.156;2024-02-28T01:38:49;40.30;;;12.90;;
76552;SDS011;65395;53.168;18.156;2024-02-28T01:41:15;44.00;;;13.30;;
76552;SDS011;65395;53.168;18.156;2024-02-28T01:43:42;41.90;;;13.80;;
76552;SDS011;65395;53.168;18.156;2024-02-28T01:46:16;42.20;;;14.40;;
76552;SDS011;65395;53.168;18.156;2024-02-28T01:48:48;41.50;;;14.30;;
76552;SDS011;65395;53.168;18.156;2024-02-28T01:51:16;36.80;;;13.10;;
76552;SDS011;65395;53.168;18.156;2024-02-28T01:53:44;37.80;;;13.50;;
76552;SDS011;65395;53.168;18.156;2024-02-28T01:56:13;41.40;;;13.70;;
76552;SDS011;65395;53.168;18.156;2024-02-28T01:58:43;44.20;;;14.60;;
76552;SDS011;65395;53.168;18.156;2024-02-28T02:01:13;43.80;;;14.00;;
76552;SDS011;65395;53.168;18.156;2024-02-28T02:03:44;38.10;;;13.10;;
76552;SDS011;65395;53.168;18.156;2024-02-28T02:06:11;42.30;;;14.80;;
76552;SDS011;65395;53.168;18.156;2024-02-28T02:08:38;41.70;;;14.30;;
76552;SDS011;65395;53.168;18.156;2024-02-28T02:11:05;43.20;;;15.00;;
76552;SDS011;65395;53.168;18.156;2024-02-28T02:13:32;37.60;;;13.60;;
76552;SDS011;65395;53.168;18.156;2024-02-28T02:15:59;48.20;;;14.80;;
76552;SDS011;65395;53.168;18.156;2024-02-28T02:18:26;39.90;;;14.40;;
76552;SDS011;65395;53.168;18.156;2024-02-28T02:20:54;42.10;;;14.50;;
76552;SDS011;65395;53.168;18.156;2024-02-28T02:23:29;45.80;;;14.70;;
76552;SDS011;65395;53.168;18.156;2024-02-28T02:25:56;45.40;;;14.40;;
76552;SDS011;65395;53.168;18.156;2024-02-28T02:28:23;43.60;;;12.60;;
76552;SDS011;65395;53.168;18.156;2024-02-28T02:30:50;43.60;;;14.10;;
76552;SDS011;65395;53.168;18.156;2024-02-28T02:33:17;42.30;;;13.60;;
76552;SDS011;65395;53.168;18.156;2024-02-28T02:35:44;41.30;;;13.90;;
76552;SDS011;65395;53.168;18.156;2024-02-28T02:38:11;43.20;;;14.00;;
76552;SDS011;65395;53.168;18.156;2024-02-28T02:40:38;44.80;;;14.00;;
76552;SDS011;65395;53.168;18.156;2024-02-28T02:43:05;48.20;;;14.40;;
76552;SDS011;65395;53.168;18.156;2024-02-28T02:45:31;44.10;;;14.70;;
76552;SDS011;65395;53.168;18.156;2024-02-28T02:47:58;42.70;;;13.70;;
76552;SDS011;65395;53.168;18.156;2024-02-28T02:50:25;45.90;;;15.00;;
76552;SDS011;65395;53.168;18.156;2024-02-28T02:52:52;46.70;;;14.70;;
76552;SDS011;65395;53.168;18.156;2024-02-28T02:55:19;43.80;;;15.10;;
76552;SDS011;65395;53.168;18.156;2024-02-28T02:57:46;46.10;;;14.70;;
76552;SDS011;65395;53.168;18.156;2024-02-28T03:00:13;39.70;;;14.90;;
76552;SDS011;65395;53.168;18.156;2024-02-28T03:02:40;40.00;;;14.00;;
76552;SDS011;65395;53.168;18.156;2024-02-28T03:05:07;48.20;;;14.80;;
76552;SDS011;65395;53.168;18.156;2024-02-28T03:07:34;47.30;;;15.30;;
76552;SDS011;65395;53.168;18.156;2024-02-28T03:10:01;46.90;;;15.40;;
76552;SDS011;65395;53.168;18.156;2024-02-28T03:12:29;43.00;;;14.90;;
76552;SDS011;65395;53.168;18.156;2024-02-28T03:14:56;41.00;;;15.20;;
76552;SDS011;65395;53.168;18.156;2024-02-28T03:17:23;41.70;;;14.40;;
76552;SDS011;65395;53.168;18.156;2024-02-28T03:19:50;41.60;;;13.90;;
76552;SDS011;65395;53.168;18.156;2024-02-28T03:22:17;38.00;;;15.00;;
76552;SDS011;65395;53.168;18.156;2024-02-28T03:24:44;35.30;;;14.00;;
76552;SDS011;65395;53.168;18.156;2024-02-28T03:27:11;36.20;;;13.50;;
76552;SDS011;65395;53.168;18.156;2024-02-28T03:29:38;39.60;;;13.90;;
76552;SDS011;65395;53.168;18.156;2024-02-28T03:32:05;43.70;;;14.70;;
76552;SDS011;65395;53.168;18.156;2024-02-28T03:34:32;44.90;;;16.10;;
76552;SDS011;65395;53.168;18.156;2024-02-28T03:36:59;46.20;;;15.90;;
76552;SDS011;65395;53.168;18.156;2024-02-28T03:39:26;42.70;;;14.70;;
76552;SDS011;65395;53.168;18.156;2024-02-28T03:41:53;41.20;;;14.90;;
76552;SDS011;65395;53.168;18.156;2024-02-28T03:44:20;40.20;;;14.40;;
76552;SDS011;65395;53.168;18.156;2024-02-28T03:46:47;34.40;;;13.70;;
76552;SDS011;65395;53.168;18.156;2024-02-28T03:49:14;40.60;;;14.30;;
76552;SDS011;65395;53.168;18.156;2024-02-28T03:51:41;39.10;;;14.60;;
76552;SDS011;65395;53.168;18.156;2024-02-28T03:54:08;39.40;;;14.30;;
76552;SDS011;65395;53.168;18.156;2024-02-28T03:56:35;40.90;;;14.90;;
76552;SDS011;65395;53.168;18.156;2024-02-28T03:59:02;44.20;;;15.80;;
76552;SDS011;65395;53.168;18.156;2024-02-28T04:01:30;45.80;;;14.90;;
76552;SDS011;65395;53.168;18.156;2024-02-28T04:03:57;40.80;;;15.00;;
76552;SDS011;65395;53.168;18.156;2024-02-28T04:06:24;42.10;;;14.70;;
76552;SDS011;65395;53.168;18.156;2024-02-28T04:08:51;47.30;;;16.00;;
76552;SDS011;65395;53.168;18.156;2024-02-28T04:11:18;50.10;;;16.10;;
76552;SDS011;65395;53.168;18.156;2024-02-28T04:13:46;48.50;;;16.60;;
76552;SDS011;65395;53.168;18.156;2024-02-28T04:16:13;44.50;;;15.20;;
76552;SDS011;65395;53.168;18.156;2024-02-28T04:18:40;44.20;;;15.40;;
76552;SDS011;65395;53.168;18.156;2024-02-28T04:21:06;46.80;;;15.40;;
76552;SDS011;65395;53.168;18.156;2024-02-28T04:23:33;41.30;;;14.90;;
76552;SDS011;65395;53.168;18.156;2024-02-28T04:26:01;47.20;;;15.30;;
76552;SDS011;65395;53.168;18.156;2024-02-28T04:28:28;37.90;;;14.20;;
76552;SDS011;65395;53.168;18.156;2024-02-28T04:30:55;40.60;;;14.70;;
76552;SDS011;65395;53.168;18.156;2024-02-28T04:33:22;35.30;;;12.90;;
76552;SDS011;65395;53.168;18.156;2024-02-28T04:35:49;37.40;;;13.50;;
76552;SDS011;65395;53.168;18.156;2024-02-28T04:38:16;36.70;;;13.40;;
76552;SDS011;65395;53.168;18.156;2024-02-28T04:40:43;41.30;;;14.90;;
76552;SDS011;65395;53.168;18.156;2024-02-28T04:43:10;34.90;;;13.20;;
76552;SDS011;65395;53.168;18.156;2024-02-28T04:45:37;38.10;;;12.80;;
76552;SDS011;65395;53.168;18.156;2024-02-28T04:48:04;36.50;;;13.80;;
76552;SDS011;65395;53.168;18.156;2024-02-28T04:50:31;38.60;;;13.60;;
76552;SDS011;65395;53.168;18.156;2024-02-28T04:52:58;38.40;;;13.40;;
76552;SDS011;65395;53.168;18.156;2024-02-28T04:55:25;43.70;;;14.00;;
76552;SDS011;65395;53.168;18.156;2024-02-28T04:57:52;37.30;;;13.30;;
76552;SDS011;65395;53.168;18.156;2024-02-28T05:00:19;37.50;;;13.00;;
76552;SDS011;65395;53.168;18.156;2024-02-28T05:02:45;31.70;;;12.70;;
76552;SDS011;65395;53.168;18.156;2024-02-28T05:05:12;34.50;;;12.20;;
76552;SDS011;65395;53.168;18.156;2024-02-28T05:07:39;32.80;;;12.60;;
76552;SDS011;65395;53.168;18.156;2024-02-28T05:10:06;38.70;;;12.90;;
76552;SDS011;65395;53.168;18.156;2024-02-28T05:12:34;41.20;;;13.30;;
76552;SDS011;65395;53.168;18.156;2024-02-28T05:15:01;34.60;;;12.90;;
76552;SDS011;65395;53.168;18.156;2024-02-28T05:17:28;34.90;;;12.30;;
76552;SDS011;65395;53.168;18.156;2024-02-28T05:19:54;30.40;;;11.20;;
76552;SDS011;65395;53.168;18.156;2024-02-28T05:22:23;32.60;;;12.10;;
76552;SDS011;65395;53.168;18.156;2024-02-28T05:24:50;27.70;;;11.60;;
76552;SDS011;65395;53.168;18.156;2024-02-28T05:27:18;25.50;;;10.90;;
76552;SDS011;65395;53.168;18.156;2024-02-28T05:29:45;24.90;;;10.70;;
76552;SDS011;65395;53.168;18.156;2024-02-28T05:32:12;27.70;;;11.20;;
76552;SDS011;65395;53.168;18.156;2024-02-28T05:34:39;27.40;;;11.30;;
76552;SDS011;65395;53.168;18.156;2024-02-28T05:37:06;30.30;;;11.90;;
76552;SDS011;65395;53.168;18.156;2024-02-28T05:39:33;28.10;;;11.70;;
76552;SDS011;65395;53.168;18.156;2024-02-28T05:42:01;27.00;;;11.90;;
76552;SDS011;65395;53.168;18.156;2024-02-28T05:44:27;29.20;;;11.90;;
76552;SDS011;65395;53.168;18.156;2024-02-28T05:46:54;29.30;;;12.20;;
76552;SDS011;65395;53.168;18.156;2024-02-28T05:49:21;27.90;;;11.00;;
76552;SDS011;65395;53.168;18.156;2024-02-28T05:51:49;29.70;;;11.50;;
76552;SDS011;65395;53.168;18.156;2024-02-28T05:54:16;29.40;;;11.70;;
76552;SDS011;65395;53.168;18.156;2024-02-28T05:56:42;25.30;;;11.20;;
76552;SDS011;65395;53.168;18.156;2024-02-28T05:59:09;30.10;;;11.30;;
76552;SDS011;65395;53.168;18.156;2024-02-28T06:01:36;29.20;;;11.80;;
76552;SDS011;65395;53.168;18.156;2024-02-28T06:04:06;29.50;;;12.10;;
76552;SDS011;65395;53.168;18.156;2024-02-28T06:06:33;25.90;;;11.40;;
76552;SDS011;65395;53.168;18.156;2024-02-28T06:09:00;28.70;;;11.10;;
76552;SDS011;65395;53.168;18.156;2024-02-28T06:11:27;30.30;;;11.60;;
76552;SDS011;65395;53.168;18.156;2024-02-28T06:13:54;35.70;;;13.70;;
76552;SDS011;65395;53.168;18.156;2024-02-28T06:16:21;39.60;;;14.50;;
76552;SDS011;65395;53.168;18.156;2024-02-28T06:18:48;38.90;;;14.20;;
76552;SDS011;65395;53.168;18.156;2024-02-28T06:21:15;40.30;;;13.30;;
76552;SDS011;65395;53.168;18.156;2024-02-28T06:23:42;36.50;;;12.80;;
76552;SDS011;65395;53.168;18.156;2024-02-28T06:26:10;32.60;;;12.40;;
76552;SDS011;65395;53.168;18.156;2024-02-28T06:28:43;37.00;;;12.60;;
76552;SDS011;65395;53.168;18.156;2024-02-28T06:31:14;43.20;;;13.40;;
76552;SDS011;65395;53.168;18.156;2024-02-28T06:33:43;36.90;;;11.90;;
76552;SDS011;65395;53.168;18.156;2024-02-28T06:36:11;37.60;;;12.90;;
76552;SDS011;65395;53.168;18.156;2024-02-28T06:38:38;37.90;;;13.30;;
76552;SDS011;65395;53.168;18.156;2024-02-28T06:41:05;36.00;;;12.70;;
76552;SDS011;65395;53.168;18.156;2024-02-28T06:43:33;36.90;;;12.10;;
76552;SDS011;65395;53.168;18.156;2024-02-28T06:46:02;38.60;;;12.40;;
76552;SDS011;65395;53.168;18.156;2024-02-28T06:48:29;41.00;;;13.00;;
76552;SDS011;65395;53.168;18.156;2024-02-28T06:50:56;38.60;;;12.50;;
76552;SDS011;65395;53.168;18.156;2024-02-28T06:53:24;34.30;;;12.80;;
76552;SDS011;65395;53.168;18.156;2024-02-28T06:55:52;32.80;;;10.90;;
76552;SDS011;65395;53.168;18.156;2024-02-28T06:58:19;31.70;;;10.90;;
76552;SDS011;65395;53.168;18.156;2024-02-28T07:00:46;32.50;;;11.60;;
76552;SDS011;65395;53.168;18.156;2024-02-28T07:03:14;30.40;;;11.40;;
76552;SDS011;65395;53.168;18.156;2024-02-28T07:05:42;30.10;;;12.10;;
76552;SDS011;65395;53.168;18.156;2024-02-28T07:08:08;27.70;;;11.20;;
76552;SDS011;65395;53.168;18.156;2024-02-28T07:10:37;33.70;;;12.10;;
76552;SDS011;65395;53.168;18.156;2024-02-28T07:13:09;34.20;;;11.40;;
76552;SDS011;65395;53.168;18.156;2024-02-28T07:15:37;31.20;;;11.50;;
76552;SDS011;65395;53.168;18.156;2024-02-28T07:18:06;33.80;;;12.40;;
76552;SDS011;65395;53.168;18.156;2024-02-28T07:20:33;30.00;;;11.90;;
76552;SDS011;65395;53.168;18.156;2024-02-28T07:23:00;37.40;;;12.30;;
76552;SDS011;65395;53.168;18.156;2024-02-28T07:25:27;33.80;;;11.90;;
76552;SDS011;65395;53.168;18.156;2024-02-28T07:27:56;32.30;;;12.30;;
76552;SDS011;65395;53.168;18.156;2024-02-28T07:30:23;34.40;;;12.70;;
76552;SDS011;65395;53.168;18.156;2024-02-28T07:32:50;35.20;;;12.20;;
76552;SDS011;65395;53.168;18.156;2024-02-28T07:35:17;31.90;;;11.90;;
76552;SDS011;65395;53.168;18.156;2024-02-28T07:37:45;34.70;;;12.00;;
76552;SDS011;65395;53.168;18.156;2024-02-28T07:40:14;32.80;;;12.60;;
76552;SDS011;65395;53.168;18.156;2024-02-28T07:42:41;31.50;;;11.40;;
76552;SDS011;65395;53.168;18.156;2024-02-28T07:45:08;31.80;;;12.20;;
76552;SDS011;65395;53.168;18.156;2024-02-28T07:47:35;32.50;;;11.90;;
76552;SDS011;65395;53.168;18.156;2024-02-28T07:50:03;28.10;;;10.60;;
76552;SDS011;65395;53.168;18.156;2024-02-28T07:52:31;27.90;;;11.10;;
76552;SDS011;65395;53.168;18.156;2024-02-28T07:55:01;31.80;;;11.40;;
76552;SDS011;65395;53.168;18.156;2024-02-28T07:57:29;29.60;;;11.30;;
76552;SDS011;65395;53.168;18.156;2024-02-28T07:59:56;32.60;;;11.40;;
76552;SDS011;65395;53.168;18.156;2024-02-28T08:02:23;29.90;;;11.60;;
76552;SDS011;65395;53.168;18.156;2024-02-28T08:04:50;35.20;;;12.40;;
76552;SDS011;65395;53.168;18.156;2024-02-28T08:07:17;30.80;;;11.60;;
76552;SDS011;65395;53.168;18.156;2024-02-28T08:09:44;32.60;;;11.40;;
76552;SDS011;65395;53.168;18.156;2024-02-28T08:12:11;27.20;;;9.90;;
76552;SDS011;65395;53.168;18.156;2024-02-28T08:14:38;27.60;;;11.10;;
76552;SDS011;65395;53.168;18.156;2024-02-28T08:17:05;26.00;;;10.80;;
76552;SDS011;65395;53.168;18.156;2024-02-28T08:19:32;26.90;;;10.80;;
76552;SDS011;65395;53.168;18.156;2024-02-28T08:22:01;23.30;;;9.70;;
76552;SDS011;65395;53.168;18.156;2024-02-28T08:24:28;25.70;;;9.90;;
76552;SDS011;65395;53.168;18.156;2024-02-28T08:26:55;28.80;;;12.70;;
76552;SDS011;65395;53.168;18.156;2024-02-28T08:29:22;29.50;;;12.60;;
76552;SDS011;65395;53.168;18.156;2024-02-28T08:31:49;27.20;;;11.10;;
76552;SDS011;65395;53.168;18.156;2024-02-28T08:34:17;27.80;;;11.60;;
76552;SDS011;65395;53.168;18.156;2024-02-28T08:36:44;27.70;;;11.60;;
76552;SDS011;65395;53.168;18.156;2024-02-28T08:39:14;26.50;;;11.40;;
76552;SDS011;65395;53.168;18.156;2024-02-28T08:41:41;26.20;;;11.20;;
76552;SDS011;65395;53.168;18.156;2024-02-28T08:44:08;25.20;;;10.70;;
76552;SDS011;65395;53.168;18.156;2024-02-28T08:46:35;26.10;;;11.20;;
76552;SDS011;65395;53.168;18.156;2024-02-28T08:49:02;24.30;;;10.60;;
76552;SDS011;65395;53.168;18.156;2024-02-28T08:51:29;27.90;;;11.70;;
76552;SDS011;65395;53.168;18.156;2024-02-28T08:53:56;24.00;;;10.40;;
76552;SDS011;65395;53.168;18.156;2024-02-28T08:56:26;26.30;;;10.70;;
76552;SDS011;65395;53.168;18.156;2024-02-28T08:58:53;26.00;;;11.60;;
76552;SDS011;65395;53.168;18.156;2024-02-28T09:01:19;27.20;;;10.90;;
76552;SDS011;65395;53.168;18.156;2024-02-28T09:03:46;23.50;;;10.20;;
76552;SDS011;65395;53.168;18.156;2024-02-28T09:06:14;23.70;;;10.40;;
76552;SDS011;65395;53.168;18.156;2024-02-28T09:08:40;24.80;;;9.50;;
76552;SDS011;65395;53.168;18.156;2024-02-28T09:11:08;20.90;;;9.80;;
76552;SDS011;65395;53.168;18.156;2024-02-28T09:13:35;23.40;;;10.30;;
76552;SDS011;65395;53.168;18.156;2024-02-28T09:16:02;22.20;;;9.70;;
76552;SDS011;65395;53.168;18.156;2024-02-28T09:18:29;20.60;;;9.60;;
76552;SDS011;65395;53.168;18.156;2024-02-28T09:20:56;20.70;;;9.70;;
76552;SDS011;65395;53.168;18.156;2024-02-28T09:23:23;19.30;;;9.20;;
76552;SDS011;65395;53.168;18.156;2024-02-28T09:25:50;18.30;;;8.70;;
76552;SDS011;65395;53.168;18.156;2024-02-28T09:28:17;24.40;;;11.20;;
76552;SDS011;65395;53.168;18.156;2024-02-28T09:30:44;22.70;;;10.30;;
76552;SDS011;65395;53.168;18.156;2024-02-28T09:33:14;26.90;;;11.50;;
76552;SDS011;65395;53.168;18.156;2024-02-28T09:35:41;23.40;;;10.50;;
76552;SDS011;65395;53.168;18.156;2024-02-28T09:38:08;25.60;;;11.60;;
76552;SDS011;65395;53.168;18.156;2024-02-28T09:40:35;25.00;;;11.20;;
76552;SDS011;65395;53.168;18.156;2024-02-28T09:43:03;22.80;;;10.90;;
76552;SDS011;65395;53.168;18.156;2024-02-28T09:45:30;22.50;;;10.30;;
76552;SDS011;65395;53.168;18.156;2024-02-28T09:47:59;23.10;;;10.70;;
76552;SDS011;65395;53.168;18.156;2024-02-28T09:50:26;23.10;;;9.50;;
76552;SDS011;65395;53.168;18.156;2024-02-28T09:52:54;23.70;;;10.00;;
76552;SDS011;65395;53.168;18.156;2024-02-28T09:55:21;24.60;;;9.90;;
76552;SDS011;65395;53.168;18.156;2024-02-28T09:57:48;23.20;;;10.30;;
76552;SDS011;65395;53.168;18.156;2024-02-28T10:00:17;24.10;;;10.20;;
76552;SDS011;65395;53.168;18.156;2024-02-28T10:02:47;25.00;;;10.10;;
76552;SDS011;65395;53.168;18.156;2024-02-28T10:05:16;22.10;;;9.30;;
76552;SDS011;65395;53.168;18.156;2024-02-28T10:07:45;23.90;;;10.10;;
76552;SDS011;65395;53.168;18.156;2024-02-28T10:10:13;19.30;;;9.20;;
76552;SDS011;65395;53.168;18.156;2024-02-28T10:12:41;21.00;;;9.50;;
76552;SDS011;65395;53.168;18.156;2024-02-28T10:15:09;21.00;;;9.60;;
76552;SDS011;65395;53.168;18.156;2024-02-28T10:17:36;20.90;;;9.60;;
76552;SDS011;65395;53.168;18.156;2024-02-28T10:20:04;21.10;;;9.80;;
76552;SDS011;65395;53.168;18.156;2024-02-28T10:22:35;21.70;;;9.80;;
76552;SDS011;65395;53.168;18.156;2024-02-28T10:25:02;20.70;;;9.40;;
76552;SDS011;65395;53.168;18.156;2024-02-28T10:27:32;18.80;;;9.00;;
76552;SDS011;65395;53.168;18.156;2024-02-28T10:30:00;20.60;;;9.60;;
76552;SDS011;65395;53.168;18.156;2024-02-28T10:32:31;19.00;;;9.20;;
76552;SDS011;65395;53.168;18.156;2024-02-28T10:35:02;18.50;;;9.00;;
76552;SDS011;65395;53.168;18.156;2024-02-28T10:37:29;21.60;;;10.20;;
76552;SDS011;65395;53.168;18.156;2024-02-28T10:39:57;21.90;;;10.10;;
76552;SDS011;65395;53.168;18.156;2024-02-28T10:42:26;20.80;;;9.80;;
76552;SDS011;65395;53.168;18.156;2024-02-28T10:44:57;21.10;;;9.90;;
76552;SDS011;65395;53.168;18.156;2024-02-28T10:47:26;20.60;;;9.70;;
76552;SDS011;65395;53.168;18.156;2024-02-28T10:49:55;20.00;;;10.10;;
76552;SDS011;65395;53.168;18.156;2024-02-28T10:52:22;23.50;;;10.50;;
76552;SDS011;65395;53.168;18.156;2024-02-28T10:54:54;21.50;;;10.00;;
76552;SDS011;65395;53.168;18.156;2024-02-28T10:57:23;22.30;;;9.70;;
76552;SDS011;65395;53.168;18.156;2024-02-28T10:59:52;24.60;;;10.90;;
76552;SDS011;65395;53.168;18.156;2024-02-28T11:02:20;22.50;;;9.80;;
76552;SDS011;65395;53.168;18.156;2024-02-28T11:04:47;21.60;;;9.60;;
76552;SDS011;65395;53.168;18.156;2024-02-28T11:07:19;22.50;;;10.10;;
76552;SDS011;65395;53.168;18.156;2024-02-28T11:09:47;20.80;;;10.00;;
76552;SDS011;65395;53.168;18.156;2024-02-28T11:14:57;20.40;;;10.10;;
76552;SDS011;65395;53.168;18.156;2024-02-28T11:17:26;20.30;;;9.70;;
76552;SDS011;65395;53.168;18.156;2024-02-28T11:19:54;23.00;;;10.00;;
76552;SDS011;65395;53.168;18.156;2024-02-28T11:22:22;24.00;;;10.20;;
76552;SDS011;65395;53.168;18.156;2024-02-28T11:24:53;20.10;;;9.90;;
76552;SDS011;65395;53.168;18.156;2024-02-28T11:27:21;22.60;;;10.10;;
76552;SDS011;65395;53.168;18.156;2024-02-28T11:29:49;17.90;;;9.60;;
76552;SDS011;65395;53.168;18.156;2024-02-28T11:32:16;19.20;;;9.70;;
76552;SDS011;65395;53.168;18.156;2024-02-28T11:34:43;20.20;;;9.80;;
76552;SDS011;65395;53.168;18.156;2024-02-28T11:37:11;18.50;;;9.90;;
76552;SDS011;65395;53.168;18.156;2024-02-28T11:39:38;19.30;;;9.60;;
76552;SDS011;65395;53.168;18.156;2024-02-28T11:42:14;19.00;;;10.40;;
76552;SDS011;65395;53.168;18.156;2024-02-28T11:44:42;20.00;;;9.70;;
76552;SDS011;65395;53.168;18.156;2024-02-28T11:47:10;18.80;;;9.20;;
76552;SDS011;65395;53.168;18.156;2024-02-28T11:49:37;22.20;;;10.50;;
76552;SDS011;65395;53.168;18.156;2024-02-28T11:52:04;17.80;;;8.90;;
76552;SDS011;65395;53.168;18.156;2024-02-28T11:54:32;20.20;;;9.90;;
76552;SDS011;65395;53.168;18.156;2024-02-28T11:56:59;18.80;;;9.50;;
76552;SDS011;65395;53.168;18.156;2024-02-28T11:59:26;19.50;;;10.10;;
76552;SDS011;65395;53.168;18.156;2024-02-28T12:01:53;19.40;;;9.50;;
76552;SDS011;65395;53.168;18.156;2024-02-28T12:04:23;18.50;;;9.00;;
76552;SDS011;65395;53.168;18.156;2024-02-28T12:06:51;19.90;;;10.30;;
76552;SDS011;65395;53.168;18.156;2024-02-28T12:09:18;21.30;;;10.10;;
76552;SDS011;65395;53.168;18.156;2024-02-28T12:11:45;22.60;;;10.90;;
76552;SDS011;65395;53.168;18.156;2024-02-28T12:14:12;19.30;;;9.80;;
76552;SDS011;65395;53.168;18.156;2024-02-28T12:16:39;18.10;;;10.10;;
76552;SDS011;65395;53.168;18.156;2024-02-28T12:19:07;21.20;;;10.30;;
76552;SDS011;65395;53.168;18.156;2024-02-28T12:21:38;20.10;;;9.90;;
76552;SDS011;65395;53.168;18.156;2024-02-28T12:24:07;20.20;;;10.00;;
76552;SDS011;65395;53.168;18.156;2024-02-28T12:26:36;18.80;;;9.90;;
76552;SDS011;65395;53.168;18.156;2024-02-28T12:29:04;18.70;;;10.10;;
76552;SDS011;65395;53.168;18.156;2024-02-28T12:31:31;18.80;;;10.00;;
76552;SDS011;65395;53.168;18.156;2024-02-28T12:33:58;19.10;;;9.80;;
76552;SDS011;65395;53.168;18.156;2024-02-28T12:36:25;21.10;;;10.60;;
76552;SDS011;65395;53.168;18.156;2024-02-28T12:38:53;19.20;;;10.70;;
76552;SDS011;65395;53.168;18.156;2024-02-28T12:41:20;20.10;;;10.90;;
76552;SDS011;65395;53.168;18.156;2024-02-28T12:43:47;21.20;;;10.50;;
76552;SDS011;65395;53.168;18.156;2024-02-28T12:46:14;20.50;;;10.70;;
76552;SDS011;65395;53.168;18.156;2024-02-28T12:48:41;21.00;;;10.20;;
76552;SDS011;65395;53.168;18.156;2024-02-28T12:51:09;19.00;;;10.50;;
76552;SDS011;65395;53.168;18.156;2024-02-28T12:53:37;19.10;;;10.40;;
76552;SDS011;65395;53.168;18.156;2024-02-28T12:56:04;19.40;;;10.10;;
76552;SDS011;65395;53.168;18.156;2024-02-28T12:58:32;19.60;;;11.20;;
76552;SDS011;65395;53.168;18.156;2024-02-28T13:00:58;20.90;;;11.10;;
76552;SDS011;65395;53.168;18.156;2024-02-28T13:03:25;19.60;;;10.50;;
76552;SDS011;65395;53.168;18.156;2024-02-28T13:05:52;20.40;;;11.10;;
76552;SDS011;65395;53.168;18.156;2024-02-28T13:08:19;24.60;;;12.20;;
76552;SDS011;65395;53.168;18.156;2024-02-28T13:10:46;23.30;;;11.50;;
76552;SDS011;65395;53.168;18.156;2024-02-28T13:13:13;24.80;;;12.40;;
76552;SDS011;65395;53.168;18.156;2024-02-28T13:15:40;22.90;;;12.60;;
76552;SDS011;65395;53.168;18.156;2024-02-28T13:18:07;19.50;;;11.30;;
76552;SDS011;65395;53.168;18.156;2024-02-28T13:20:37;18.60;;;10.30;;
76552;SDS011;65395;53.168;18.156;2024-02-28T13:23:04;17.30;;;9.40;;
76552;SDS011;65395;53.168;18.156;2024-02-28T13:25:31;18.90;;;10.50;;
76552;SDS011;65395;53.168;18.156;2024-02-28T13:27:58;18.90;;;10.00;;
76552;SDS011;65395;53.168;18.156;2024-02-28T13:30:25;18.90;;;11.00;;
76552;SDS011;65395;53.168;18.156;2024-02-28T13:32:52;18.60;;;11.00;;
76552;SDS011;65395;53.168;18.156;2024-02-28T13:35:19;19.30;;;11.30;;
76552;SDS011;65395;53.168;18.156;2024-02-28T13:37:46;21.40;;;12.20;;
76552;SDS011;65395;53.168;18.156;2024-02-28T13:40:13;20.40;;;11.60;;
76552;SDS011;65395;53.168;18.156;2024-02-28T13:42:40;20.10;;;11.20;;
76552;SDS011;65395;53.168;18.156;2024-02-28T13:45:07;18.60;;;10.50;;
76552;SDS011;65395;53.168;18.156;2024-02-28T13:47:35;18.50;;;10.30;;
76552;SDS011;65395;53.168;18.156;2024-02-28T13:50:02;19.50;;;10.50;;
76552;SDS011;65395;53.168;18.156;2024-02-28T13:52:29;17.90;;;10.30;;
76552;SDS011;65395;53.168;18.156;2024-02-28T13:54:56;18.30;;;10.60;;
76552;SDS011;65395;53.168;18.156;2024-02-28T13:57:23;18.50;;;10.70;;
76552;SDS011;65395;53.168;18.156;2024-02-28T13:59:50;17.50;;;10.30;;
76552;SDS011;65395;53.168;18.156;2024-02-28T14:02:20;19.00;;;10.20;;
76552;SDS011;65395;53.168;18.156;2024-02-28T14:04:48;19.20;;;10.10;;
76552;SDS011;65395;53.168;18.156;2024-02-28T14:07:16;18.60;;;10.10;;
76552;SDS011;65395;53.168;18.156;2024-02-28T14:09:43;17.70;;;9.70;;
76552;SDS011;65395;53.168;18.156;2024-02-28T14:12:11;17.60;;;10.20;;
76552;SDS011;65395;53.168;18.156;2024-02-28T14:14:38;17.00;;;9.60;;